Time;durP1;ratioP1;P1;durP2;ratioP2;P2;SDS_P1;SDS_P2;PMS_P1;PMS_P2;Temp;Humidity;BMP_temperature;BMP_pressure;BME280_temperature;BME280_humidity;BME280_pressure;Samples;Min_cycle;Max_cycle;Signal;HPM_P1;HPM_P2
2021/12/26 00:00:10;;;;;;;;;;;;;;;19.90;43.04;100025.09;7277136;19;154065;-49
2021/12/26 00:02:38;;;;;;;;;;;;;;;19.89;43.34;100025.44;7277697;19;152145;-49
2021/12/26 00:05:06;;;;;;;;;;;;;;;19.86;43.58;100023.28;7280418;19;153154;-49
2021/12/26 00:07:33;;;;;;;;;;;;;;;19.84;43.53;100029.25;7274188;19;152883;-50
2021/12/26 00:10:00;;;;;;;;;;;;;;;19.83;43.12;100027.56;7290914;19;152159;-49
2021/12/26 00:12:27;;;;;;;;;;;;;;;19.82;43.24;100030.69;7283522;19;152921;-50
2021/12/26 00:14:55;;;;;;;;;;;;;;;19.80;43.60;100035.81;7286710;19;151946;-49
2021/12/26 00:17:23;;;;;;;;;;;;;;;19.77;43.62;100026.06;7284206;19;153530;-49
2021/12/26 00:19:50;;;;;;;;;;;;;;;19.74;43.28;100031.50;7286244;19;154281;-50
2021/12/26 00:22:17;;;;;;;;;;;;;;;19.72;43.34;100033.78;7286150;19;151773;-49
2021/12/26 00:24:46;;;;;;;;;;;;;;;19.65;43.65;100037.09;7287086;19;152674;-50
2021/12/26 00:27:14;;;;;;;;;;;;;;;19.66;43.70;100027.53;7285024;19;153404;-50
2021/12/26 00:29:41;;;;;;;;;;;;;;;19.61;43.65;100027.69;7283935;19;152534;-49
2021/12/26 00:32:11;;;;;;;;;;;;;;;19.57;44.04;100026.69;7292516;19;153751;-50
2021/12/26 00:34:38;;;;;;;;;;;;;;;19.54;43.93;100021.72;7286396;19;152456;-49
2021/12/26 00:37:06;;;;;;;;;;;;;;;19.52;43.90;100027.66;7284482;19;153327;-49
2021/12/26 00:39:34;;;;;;;;;;;;;;;19.50;44.02;100027.13;7282883;19;152964;-49
2021/12/26 00:42:01;;;;;;;;;;;;;;;19.47;43.95;100021.38;7285394;19;151800;-50
2021/12/26 00:44:28;;;;;;;;;;;;;;;19.46;43.90;100016.91;7284757;19;153164;-49
2021/12/26 00:46:55;;;;;;;;;;;;;;;19.44;44.21;100013.63;7283355;19;152351;-50
2021/12/26 00:49:22;;;;;;;;;;;;;;;19.42;44.18;100022.31;7284494;19;151913;-49
2021/12/26 00:51:50;;;;;;;;;;;;;;;19.41;44.01;100011.41;7284500;19;152845;-49
2021/12/26 00:54:17;;;;;;;;;;;;;;;19.38;44.25;100018.50;7292246;19;153459;-50
2021/12/26 00:56:44;;;;;;;;;;;;;;;19.38;44.05;100012.91;7286310;19;152913;-50
2021/12/26 00:59:12;;;;;;;;;;;;;;;19.35;43.94;100013.53;7283473;19;153796;-50
2021/12/26 01:01:39;;;;;;;;;;;;;;;19.33;44.08;100010.25;7283701;19;151969;-50
2021/12/26 01:04:06;;;;;;;;;;;;;;;19.29;44.10;100006.44;7285816;19;152185;-50
2021/12/26 01:06:33;;;;;;;;;;;;;;;19.28;44.35;100006.75;7285708;19;153286;-50
2021/12/26 01:09:00;;;;;;;;;;;;;;;19.27;44.31;100005.91;7285642;19;152025;-50
2021/12/26 01:13:58;;;;;;;;;;;;;;;19.24;44.37;100003.78;7280465;19;153484;-50
2021/12/26 01:16:27;;;;;;;;;;;;;;;19.22;44.29;99997.66;7291284;19;152811;-50
2021/12/26 01:19:00;;;;;;;;;;;;;;;19.21;44.48;99998.00;7283593;19;153622;-50
2021/12/26 01:21:27;;;;;;;;;;;;;;;19.16;44.27;100003.75;7283616;19;151951;-50
2021/12/26 01:23:56;;;;;;;;;;;;;;;19.15;44.21;100000.13;7284822;19;153424;-49
2021/12/26 01:26:23;;;;;;;;;;;;;;;19.14;44.50;100000.41;7282288;19;152399;-49
2021/12/26 01:28:51;;;;;;;;;;;;;;;19.14;44.35;100001.25;7285074;19;151903;-49
2021/12/26 01:31:20;;;;;;;;;;;;;;;19.09;44.79;99996.63;7284256;19;153956;-49
2021/12/26 01:33:48;;;;;;;;;;;;;;;19.09;44.78;99999.41;7279780;19;152413;-49
2021/12/26 01:36:15;;;;;;;;;;;;;;;19.07;44.73;99998.09;7284752;19;152018;-49
2021/12/26 01:38:43;;;;;;;;;;;;;;;19.05;44.81;99997.59;7291021;19;152825;-50
2021/12/26 01:41:10;;;;;;;;;;;;;;;19.01;44.81;99994.59;7283863;19;152269;-50
2021/12/26 01:43:39;;;;;;;;;;;;;;;19.00;44.62;99992.13;7282721;19;153334;-49
2021/12/26 01:46:06;;;;;;;;;;;;;;;18.97;44.65;99987.19;7283382;19;153356;-49
2021/12/26 01:48:33;;;;;;;;;;;;;;;18.94;44.80;99980.22;7283976;19;152286;-49
2021/12/26 01:51:00;;;;;;;;;;;;;;;18.91;45.10;99985.66;7284754;19;151861;-49
2021/12/26 01:53:36;;;;;;;;;;;;;;;18.92;45.13;99984.50;7281673;19;153591;-51
2021/12/26 01:56:05;;;;;;;;;;;;;;;18.87;45.26;99991.06;7282330;19;152405;-48
2021/12/26 01:58:32;;;;;;;;;;;;;;;18.90;45.07;99987.63;7283075;19;153879;-50
2021/12/26 02:01:03;;;;;;;;;;;;;;;18.89;45.01;99990.75;7290808;19;153865;-48
2021/12/26 02:03:30;;;;;;;;;;;;;;;18.87;45.09;99984.66;7281796;19;152259;-49
2021/12/26 02:05:57;;;;;;;;;;;;;;;18.86;45.13;99988.59;7282316;19;153956;-50
2021/12/26 02:08:24;;;;;;;;;;;;;;;18.83;45.18;99987.25;7283115;19;152397;-50
2021/12/26 02:10:51;;;;;;;;;;;;;;;18.82;45.32;99981.97;7286868;19;152752;-50
2021/12/26 02:13:18;;;;;;;;;;;;;;;18.80;45.29;99987.91;7280563;19;152722;-50
2021/12/26 02:15:45;;;;;;;;;;;;;;;18.80;45.10;99985.13;7282003;19;152356;-50
2021/12/26 02:18:13;;;;;;;;;;;;;;;18.82;45.20;99973.59;7282935;19;153397;-50
2021/12/26 02:23:17;;;;;;;;;;;;;;;18.80;44.97;99971.13;7282056;19;153761;-50
2021/12/26 02:28:14;;;;;;;;;;;;;;;18.80;45.46;99973.91;7281497;19;152056;-49
2021/12/26 02:30:41;;;;;;;;;;;;;;;18.79;44.99;99980.66;7283677;19;153516;-49
2021/12/26 02:33:11;;;;;;;;;;;;;;;18.77;45.38;99977.34;7277803;19;153826;-49
2021/12/26 02:35:39;;;;;;;;;;;;;;;18.77;45.15;99977.34;7279779;19;152686;-50
2021/12/26 02:38:06;;;;;;;;;;;;;;;18.76;44.95;99972.88;7283480;19;154089;-50
2021/12/26 02:40:33;;;;;;;;;;;;;;;18.77;45.38;99976.50;7280230;19;154324;-50
2021/12/26 02:43:01;;;;;;;;;;;;;;;18.75;45.29;99973.22;7288047;19;152636;-50
2021/12/26 02:45:28;;;;;;;;;;;;;;;18.73;45.43;99959.53;7278938;19;152875;-49
2021/12/26 02:47:55;;;;;;;;;;;;;;;18.71;45.05;99969.41;7281131;19;151863;-50
2021/12/26 02:50:23;;;;;;;;;;;;;;;18.69;45.52;99964.13;7283274;19;153598;-50
2021/12/26 02:52:51;;;;;;;;;;;;;;;18.70;45.11;99976.16;7279715;19;154100;-49
2021/12/26 02:55:20;;;;;;;;;;;;;;;18.68;45.46;99959.69;7281077;19;151933;-49
2021/12/26 02:57:48;;;;;;;;;;;;;;;18.65;45.23;99971.50;7282229;19;153373;-50
2021/12/26 03:00:16;;;;;;;;;;;;;;;18.67;45.50;99960.81;7281106;19;152020;-50
2021/12/26 03:02:45;;;;;;;;;;;;;;;18.65;45.46;99961.16;7283113;19;151911;-50
2021/12/26 03:05:16;;;;;;;;;;;;;;;18.63;45.63;99951.41;7289501;19;153087;-49
2021/12/26 03:07:44;;;;;;;;;;;;;;;18.62;45.66;99955.38;7278297;19;152434;-49
2021/12/26 03:10:20;;;;;;;;;;;;;;;18.60;45.68;99949.25;7278783;19;152132;-50
2021/12/26 03:12:48;;;;;;;;;;;;;;;18.60;45.64;99940.88;7281106;19;154750;-50
2021/12/26 03:15:15;;;;;;;;;;;;;;;18.60;45.56;99949.25;7281052;19;152002;-49
2021/12/26 03:17:42;;;;;;;;;;;;;;;18.56;45.37;99939.88;7282390;19;153301;-50
2021/12/26 03:20:11;;;;;;;;;;;;;;;18.56;45.81;99934.28;7281230;19;154277;-50
2021/12/26 03:22:38;;;;;;;;;;;;;;;18.56;45.47;99931.47;7279417;19;151851;-49
2021/12/26 03:25:09;;;;;;;;;;;;;;;18.57;45.31;99927.53;7280244;19;153018;-50
2021/12/26 03:27:36;;;;;;;;;;;;;;;18.54;45.71;99922.56;7288046;19;153549;-50
2021/12/26 03:30:05;;;;;;;;;;;;;;;18.53;45.70;99926.53;7281440;19;153569;-49
2021/12/26 03:32:33;;;;;;;;;;;;;;;18.52;45.42;99928.47;7278429;19;153484;-49
2021/12/26 03:35:00;;;;;;;;;;;;;;;18.51;45.80;99932.41;7277076;19;152444;-49
2021/12/26 03:37:28;;;;;;;;;;;;;;;18.49;45.71;99931.03;7280895;19;154102;-49
2021/12/26 03:39:56;;;;;;;;;;;;;;;18.50;45.62;99921.53;7280848;19;153839;-50
2021/12/26 03:42:23;;;;;;;;;;;;;;;18.49;45.50;99919.84;7282076;19;152263;-50
2021/12/26 03:44:51;;;;;;;;;;;;;;;18.46;45.54;99921.34;7288963;19;151932;-49
2021/12/26 03:47:18;;;;;;;;;;;;;;;18.47;45.92;99924.97;7286296;19;154271;-50
2021/12/26 03:49:47;;;;;;;;;;;;;;;18.44;45.58;99920.03;7295861;19;152698;-49
2021/12/26 03:52:14;;;;;;;;;;;;;;;18.45;45.76;99910.47;7286743;19;153479;-50
2021/12/26 03:54:42;;;;;;;;;;;;;;;18.43;45.66;99922.00;7284681;19;151869;-50
2021/12/26 03:57:09;;;;;;;;;;;;;;;18.43;45.78;99918.38;7286739;19;152765;-49
2021/12/26 03:59:36;;;;;;;;;;;;;;;18.41;45.62;99906.66;7286217;19;152879;-49
2021/12/26 04:02:03;;;;;;;;;;;;;;;18.39;46.00;99911.75;7287157;19;152451;-49
2021/12/26 04:04:31;;;;;;;;;;;;;;;18.40;45.63;99913.38;7287478;19;153431;-49
2021/12/26 04:06:58;;;;;;;;;;;;;;;18.37;45.60;99903.69;7281879;19;154133;-49
2021/12/26 04:09:25;;;;;;;;;;;;;;;18.36;45.97;99901.19;7284838;19;152713;-50
2021/12/26 04:11:52;;;;;;;;;;;;;;;18.38;46.04;99896.13;7293713;19;153456;-49
2021/12/26 04:14:20;;;;;;;;;;;;;;;18.34;45.69;99895.94;7285399;19;151897;-49
2021/12/26 04:16:47;;;;;;;;;;;;;;;18.32;46.18;99891.78;7287276;19;153085;-49
2021/12/26 04:19:14;;;;;;;;;;;;;;;18.34;45.82;99887.56;7284400;19;153848;-49
2021/12/26 04:21:41;;;;;;;;;;;;;;;18.32;45.85;99894.59;7285593;19;152247;-49
2021/12/26 04:24:08;;;;;;;;;;;;;;;18.32;45.98;99878.63;7287292;19;153150;-49
2021/12/26 04:26:36;;;;;;;;;;;;;;;18.30;45.97;99875.34;7286335;19;153406;-49
2021/12/26 04:29:03;;;;;;;;;;;;;;;18.31;45.88;99888.16;7284761;19;152015;-49
2021/12/26 04:31:30;;;;;;;;;;;;;;;18.28;46.03;99893.56;7294470;19;153987;-50
2021/12/26 04:34:00;;;;;;;;;;;;;;;18.26;45.84;99874.31;7286088;19;152801;-49
2021/12/26 04:36:27;;;;;;;;;;;;;;;18.28;45.89;99876.81;7286345;19;153504;-49
2021/12/26 04:38:54;;;;;;;;;;;;;;;18.27;45.82;99872.34;7285079;19;153924;-50
2021/12/26 04:41:21;;;;;;;;;;;;;;;18.23;46.08;99875.78;7284995;19;152200;-50
2021/12/26 04:43:56;;;;;;;;;;;;;;;18.21;45.96;99866.88;7286622;19;152216;-50
2021/12/26 04:46:23;;;;;;;;;;;;;;;18.21;45.94;99869.69;7283162;19;153879;-49
2021/12/26 04:48:50;;;;;;;;;;;;;;;18.21;45.99;99866.09;7285885;19;151809;-49
2021/12/26 04:51:18;;;;;;;;;;;;;;;18.21;46.22;99863.28;7286276;19;152117;-49
2021/12/26 04:53:47;;;;;;;;;;;;;;;18.20;46.25;99868.06;7290515;19;152418;-49
2021/12/26 04:58:44;;;;;;;;;;;;;;;18.18;46.17;99859.16;7284321;19;153973;-50
2021/12/26 05:01:11;;;;;;;;;;;;;;;18.17;46.29;99854.69;7285724;19;151917;-49
2021/12/26 05:03:39;;;;;;;;;;;;;;;18.17;46.39;99862.25;7286680;19;153447;-50
2021/12/26 05:06:06;;;;;;;;;;;;;;;18.16;46.03;99855.03;7281278;19;154399;-49
2021/12/26 05:08:37;;;;;;;;;;;;;;;18.15;46.25;99854.22;7284325;19;152323;-49
2021/12/26 05:11:04;;;;;;;;;;;;;;;18.15;46.06;99851.41;7285724;19;153735;-49
2021/12/26 05:13:31;;;;;;;;;;;;;;;18.14;46.36;99860.94;7283818;19;154148;-49
2021/12/26 05:15:58;;;;;;;;;;;;;;;18.15;46.36;99856.16;7291691;19;151657;-49
2021/12/26 05:18:25;;;;;;;;;;;;;;;18.14;46.19;99858.13;7283885;19;153251;-49
2021/12/26 05:20:52;;;;;;;;;;;;;;;18.14;46.07;99854.50;7285659;19;152357;-50
2021/12/26 05:23:19;;;;;;;;;;;;;;;18.12;46.25;99854.84;7285052;19;152868;-49
2021/12/26 05:25:46;;;;;;;;;;;;;;;18.11;46.13;99849.56;7282650;19;153763;-50
2021/12/26 05:28:14;;;;;;;;;;;;;;;18.11;45.99;99849.56;7285109;19;151553;-49
2021/12/26 05:30:41;;;;;;;;;;;;;;;18.09;46.17;99849.88;7283327;19;152787;-49
2021/12/26 05:33:11;;;;;;;;;;;;;;;18.09;46.14;99844.28;7284154;19;154032;-49
2021/12/26 05:35:38;;;;;;;;;;;;;;;18.10;46.48;99850.72;7282234;19;152304;-49
2021/12/26 05:38:05;;;;;;;;;;;;;;;18.07;46.58;99842.97;7289019;19;153361;-50
2021/12/26 05:40:32;;;;;;;;;;;;;;;18.08;46.39;99839.84;7284385;19;152198;-49
2021/12/26 05:42:59;;;;;;;;;;;;;;;18.07;46.25;99837.38;7285118;19;153118;-49
2021/12/26 05:45:26;;;;;;;;;;;;;;;18.05;46.29;99845.25;7283996;19;152904;-50
2021/12/26 05:47:53;;;;;;;;;;;;;;;18.07;46.25;99838.22;7283901;19;151899;-50
2021/12/26 05:50:21;;;;;;;;;;;;;;;18.04;46.63;99840.78;7285039;19;153130;-50
2021/12/26 05:52:48;;;;;;;;;;;;;;;18.04;46.18;99844.41;7281795;19;153437;-49
2021/12/26 05:55:16;;;;;;;;;;;;;;;18.04;46.37;99844.41;7279876;19;152549;-49
2021/12/26 05:57:43;;;;;;;;;;;;;;;18.03;46.50;99837.19;7281578;19;152535;-49
2021/12/26 06:00:14;;;;;;;;;;;;;;;18.03;46.29;99842.78;7291033;19;154480;-49
2021/12/26 06:02:41;;;;;;;;;;;;;;;18.03;46.42;99837.19;7280856;19;153020;-49
2021/12/26 06:05:09;;;;;;;;;;;;;;;18.03;46.29;99822.41;7283210;19;153366;-50
2021/12/26 06:07:36;;;;;;;;;;;;;;;18.00;46.77;99832.22;7276591;19;151921;-50
2021/12/26 06:10:04;;;;;;;;;;;;;;;18.01;46.44;99833.06;7284348;19;152770;-50
2021/12/26 06:12:31;;;;;;;;;;;;;;;18.01;46.59;99825.50;7280228;19;152305;-50
2021/12/26 06:14:58;;;;;;;;;;;;;;;17.99;46.65;99819.41;7280778;19;151674;-50
2021/12/26 06:17:26;;;;;;;;;;;;;;;17.98;46.59;99817.75;7284276;19;152840;-50
2021/12/26 06:19:52;;;;;;;;;;;;;;;17.99;46.78;99824.19;7282894;19;153241;-50
2021/12/26 06:22:19;;;;;;;;;;;;;;;17.98;46.41;99823.34;7294605;19;151515;-49
2021/12/26 06:24:46;;;;;;;;;;;;;;;17.99;46.64;99818.59;7283444;19;152114;-49
2021/12/26 06:27:13;;;;;;;;;;;;;;;17.98;46.79;99817.75;7283393;19;152112;-49
2021/12/26 06:29:40;;;;;;;;;;;;;;;17.98;46.79;99816.94;7283138;19;152024;-49
2021/12/26 06:32:07;;;;;;;;;;;;;;;17.98;46.47;99822.53;7279069;19;152309;-49
2021/12/26 06:34:35;;;;;;;;;;;;;;;17.99;46.60;99818.59;7281952;19;152134;-50
2021/12/26 06:37:02;;;;;;;;;;;;;;;17.99;46.76;99819.41;7283197;19;152500;-49
2021/12/26 06:39:29;;;;;;;;;;;;;;;17.97;46.69;99816.09;7280077;19;152948;-48
2021/12/26 06:41:56;;;;;;;;;;;;;;;17.97;46.73;99812.50;7291268;19;152300;-50
2021/12/26 06:44:24;;;;;;;;;;;;;;;17.97;46.48;99816.09;7281376;19;152965;-49
2021/12/26 06:46:51;;;;;;;;;;;;;;;17.93;46.78;99814.28;7282864;19;152123;-50
2021/12/26 06:49:18;;;;;;;;;;;;;;;17.98;46.82;99811.34;7282473;19;153305;-49
2021/12/26 06:51:45;;;;;;;;;;;;;;;18.03;46.77;99812.03;7282048;19;153303;-49
2021/12/26 06:54:12;;;;;;;;;;;;;;;18.14;46.57;99810.63;7283642;19;152118;-49
2021/12/26 06:56:39;;;;;;;;;;;;;;;18.21;46.69;99810.97;7282655;19;153478;-49
2021/12/26 06:59:07;;;;;;;;;;;;;;;18.27;46.58;99810.84;7281757;19;153407;-50
2021/12/26 07:01:34;;;;;;;;;;;;;;;18.34;46.35;99808.44;7282658;19;152052;-49
2021/12/26 07:04:02;;;;;;;;;;;;;;;18.41;46.70;99808.78;7286585;19;153463;-49
2021/12/26 07:06:29;;;;;;;;;;;;;;;18.46;46.82;99820.66;7279430;19;152182;-50
2021/12/26 07:08:56;;;;;;;;;;;;;;;18.54;46.54;99805.06;7282857;19;153418;-50
2021/12/26 07:11:23;;;;;;;;;;;;;;;18.61;46.60;99808.25;7281100;19;154214;-49
2021/12/26 07:13:50;;;;;;;;;;;;;;;18.67;46.94;99816.16;7280138;19;152680;-49
2021/12/26 07:16:17;;;;;;;;;;;;;;;18.74;46.64;99812.06;7278008;19;152626;-50
2021/12/26 07:18:44;;;;;;;;;;;;;;;18.82;46.50;99814.06;7285142;19;154044;-50
2021/12/26 07:21:11;;;;;;;;;;;;;;;18.87;46.48;99814.75;7298077;19;152480;-49
2021/12/26 07:26:19;;;;;;;;;;;;;;;19.01;46.16;99821.06;7303423;19;151952;-48
2021/12/26 07:28:46;;;;;;;;;;;;;;;19.09;46.11;99837.03;7300340;19;154200;-49
2021/12/26 07:31:13;;;;;;;;;;;;;;;19.16;45.90;99832.94;7297348;19;152539;-49
2021/12/26 07:33:40;;;;;;;;;;;;;;;19.22;45.78;99837.22;7296569;19;152072;-49
2021/12/26 07:36:07;;;;;;;;;;;;;;;19.29;45.57;99823.56;7293786;19;153129;-50
2021/12/26 07:38:34;;;;;;;;;;;;;;;19.36;45.43;99835.09;7294351;19;154297;-50
2021/12/26 07:41:20;;;;;;;;;;;;;;;19.43;45.02;99838.25;7293053;19;151842;-49
2021/12/26 07:43:47;;;;;;;;;;;;;;;19.47;45.10;99837.31;7294313;19;152857;-49
2021/12/26 07:46:14;;;;;;;;;;;;;;;19.54;45.23;99836.78;7292754;19;153210;-49
2021/12/26 07:48:41;;;;;;;;;;;;;;;19.60;44.88;99838.28;7302783;19;151881;-49
2021/12/26 07:51:08;;;;;;;;;;;;;;;19.66;44.99;99841.75;7294403;19;154523;-49
2021/12/26 07:53:35;;;;;;;;;;;;;;;19.71;44.77;99844.41;7293325;19;152216;-49
2021/12/26 07:56:03;;;;;;;;;;;;;;;19.76;44.83;99833.03;7293304;19;153458;-49
2021/12/26 07:58:30;;;;;;;;;;;;;;;19.81;44.75;99835.63;7290940;19;154616;-49
2021/12/26 08:00:57;;;;;;;;;;;;;;;19.85;44.72;99840.25;7294735;19;152418;-49
2021/12/26 08:03:24;;;;;;;;;;;;;;;19.90;44.18;99836.47;7292799;19;152635;-49
2021/12/26 08:05:52;;;;;;;;;;;;;;;19.94;44.43;99835.47;7292612;19;154113;-50
2021/12/26 08:08:19;;;;;;;;;;;;;;;19.99;44.18;99835.28;7294306;19;152125;-49
2021/12/26 08:10:46;;;;;;;;;;;;;;;20.04;44.20;99833.47;7301189;19;153501;-50
2021/12/26 08:13:13;;;;;;;;;;;;;;;20.07;44.37;99839.25;7292686;19;152636;-49
2021/12/26 08:15:40;;;;;;;;;;;;;;;20.12;44.03;99841.06;7291427;19;153022;-49
2021/12/26 08:18:07;;;;;;;;;;;;;;;20.13;44.10;99842.69;7292403;19;153996;-50
2021/12/26 08:20:34;;;;;;;;;;;;;;;20.16;43.79;99848.47;7294454;19;152592;-49
2021/12/26 08:23:01;;;;;;;;;;;;;;;20.19;43.76;99846.97;7294657;19;152882;-50
2021/12/26 08:25:29;;;;;;;;;;;;;;;20.23;43.94;99845.16;7293489;19;153398;-49
2021/12/26 08:27:56;;;;;;;;;;;;;;;20.26;43.48;99839.69;7293116;19;152159;-49
2021/12/26 08:30:26;;;;;;;;;;;;;;;20.29;43.59;99850.25;7288254;19;152239;-49
2021/12/26 08:32:54;;;;;;;;;;;;;;;20.30;43.72;99845.53;7291331;19;151927;-50
2021/12/26 08:35:21;;;;;;;;;;;;;;;20.33;43.43;99847.66;7288596;19;153506;-49
2021/12/26 08:37:49;;;;;;;;;;;;;;;20.32;43.27;99841.19;7283911;19;154636;-50
2021/12/26 08:40:16;;;;;;;;;;;;;;;20.35;43.67;99845.34;7286550;19;152099;-50
2021/12/26 08:42:43;;;;;;;;;;;;;;;20.34;43.64;99846.50;7284968;19;153207;-48
2021/12/26 08:45:11;;;;;;;;;;;;;;;20.36;43.35;99844.16;7284242;19;152812;-50
2021/12/26 08:47:38;;;;;;;;;;;;;;;20.35;43.61;99843.34;7285839;19;152038;-49
2021/12/26 08:50:06;;;;;;;;;;;;;;;20.34;43.40;99838.91;7286726;19;153411;-49
2021/12/26 08:52:34;;;;;;;;;;;;;;;20.35;43.39;99843.34;7292269;19;153885;-50
2021/12/26 08:55:01;;;;;;;;;;;;;;;20.34;43.21;99854.91;7283434;19;152892;-50
2021/12/26 08:57:30;;;;;;;;;;;;;;;20.35;43.67;99848.16;7284365;19;152521;-50
2021/12/26 08:59:57;;;;;;;;;;;;;;;20.32;43.65;99857.22;7288488;19;151826;-51
2021/12/26 09:02:24;;;;;;;;;;;;;;;20.31;43.54;99855.56;7285833;19;152020;-50
2021/12/26 09:04:52;;;;;;;;;;;;;;;20.30;43.55;99851.13;7283049;19;154279;-50
2021/12/26 09:07:19;;;;;;;;;;;;;;;20.29;43.31;99847.47;7283444;19;152203;-50
2021/12/26 09:09:46;;;;;;;;;;;;;;;20.26;43.59;99862.13;7285732;19;153858;-50
2021/12/26 09:12:13;;;;;;;;;;;;;;;20.24;43.38;99858.84;7283115;19;153576;-52
2021/12/26 09:14:44;;;;;;;;;;;;;;;20.25;43.50;99862.50;7293609;19;151546;-49
2021/12/26 09:17:11;;;;;;;;;;;;;;;20.23;43.47;99865.63;7281703;19;153399;-50
2021/12/26 09:19:38;;;;;;;;;;;;;;;20.21;43.62;99867.13;7285624;19;152489;-50
2021/12/26 09:22:09;;;;;;;;;;;;;;;20.20;43.80;99865.47;7286100;19;153446;-49
2021/12/26 09:24:38;;;;;;;;;;;;;;;20.18;43.91;99870.56;7284135;19;154536;-49
2021/12/26 09:27:05;;;;;;;;;;;;;;;20.17;43.53;99872.53;7285501;19;152497;-49
2021/12/26 09:29:32;;;;;;;;;;;;;;;20.15;43.97;99874.03;7284283;19;153343;-49
2021/12/26 09:32:02;;;;;;;;;;;;;;;20.14;43.70;99866.78;7284129;19;152959;-50
2021/12/26 09:34:30;;;;;;;;;;;;;;;20.12;43.84;99869.09;7286027;19;151904;-49
2021/12/26 09:36:58;;;;;;;;;;;;;;;20.11;43.69;99864.66;7289356;19;153877;-50
2021/12/26 09:39:25;;;;;;;;;;;;;;;20.07;44.06;99872.09;7284407;19;151809;-50
2021/12/26 09:41:53;;;;;;;;;;;;;;;20.06;43.78;99867.63;7282405;19;154366;-50
2021/12/26 09:44:21;;;;;;;;;;;;;;;20.02;43.82;99864.66;7283717;19;152983;-49
2021/12/26 09:46:48;;;;;;;;;;;;;;;20.01;44.23;99859.38;7283664;19;152280;-50
2021/12/26 09:49:16;;;;;;;;;;;;;;;20.00;44.03;99869.75;7281209;19;155280;-50
2021/12/26 09:51:43;;;;;;;;;;;;;;;19.97;44.32;99868.47;7283994;19;154967;-50
2021/12/26 09:54:10;;;;;;;;;;;;;;;19.95;44.10;99861.53;7284269;19;152197;-49
2021/12/26 09:56:39;;;;;;;;;;;;;;;19.94;43.92;99857.88;7280313;19;153689;-49
2021/12/26 09:59:07;;;;;;;;;;;;;;;19.92;43.99;99856.59;7291344;19;153395;-50
2021/12/26 10:01:34;;;;;;;;;;;;;;;19.91;44.28;99852.94;7282379;19;152814;-50
2021/12/26 10:04:03;;;;;;;;;;;;;;;19.88;44.08;99856.44;7284961;19;153329;-50
2021/12/26 10:06:32;;;;;;;;;;;;;;;19.86;44.21;99858.72;7282621;19;152115;-50
2021/12/26 10:09:01;;;;;;;;;;;;;;;19.85;44.59;99850.66;7284265;19;153189;-50
2021/12/26 10:11:30;;;;;;;;;;;;;;;19.83;44.63;99855.75;7280953;19;154115;-50
2021/12/26 10:13:59;;;;;;;;;;;;;;;19.82;44.57;99848.50;7284012;19;152159;-50
2021/12/26 10:16:29;;;;;;;;;;;;;;;19.78;44.52;99848.34;7280586;19;153754;-50
2021/12/26 10:18:58;;;;;;;;;;;;;;;19.78;44.57;99847.53;7283282;19;152321;-49
2021/12/26 10:21:28;;;;;;;;;;;;;;;19.74;44.39;99852.97;7290637;19;152190;-50
2021/12/26 10:23:57;;;;;;;;;;;;;;;19.71;44.83;99852.81;7283039;19;152708;-50
2021/12/26 10:26:25;;;;;;;;;;;;;;;19.67;44.79;99841.41;7283466;19;152042;-49
2021/12/26 10:28:55;;;;;;;;;;;;;;;19.62;45.13;99849.19;7281759;19;152736;-50
2021/12/26 10:31:22;;;;;;;;;;;;;;;19.61;45.03;99848.34;7281980;19;153659;-50
2021/12/26 10:33:49;;;;;;;;;;;;;;;19.57;44.91;99844.56;7284425;19;152213;-50
2021/12/26 10:36:16;;;;;;;;;;;;;;;19.57;45.25;99843.75;7285134;19;151875;-49
2021/12/26 10:38:43;;;;;;;;;;;;;;;19.51;45.26;99841.09;7283639;19;153497;-50
2021/12/26 10:41:23;;;;;;;;;;;;;;;19.51;45.31;99846.69;7288817;19;152126;-49
2021/12/26 10:43:50;;;;;;;;;;;;;;;19.49;44.99;99842.56;7279074;19;152605;-50
2021/12/26 10:46:17;;;;;;;;;;;;;;;19.48;45.21;99838.13;7282715;19;152209;-49
2021/12/26 10:48:44;;;;;;;;;;;;;;;19.45;45.22;99833.16;7282300;19;153530;-50
2021/12/26 10:51:31;;;;;;;;;;;;;;;19.42;45.60;99834.63;7279496;19;154241;-50
2021/12/26 10:54:01;;;;;;;;;;;;;;;19.43;45.17;99819.50;7280137;19;152558;-49
2021/12/26 10:56:28;;;;;;;;;;;;;;;19.40;45.21;99828.50;7281768;19;153737;-49
2021/12/26 10:59:15;;;;;;;;;;;;;;;19.39;45.70;99818.50;7281740;19;154260;-50
2021/12/26 11:01:42;;;;;;;;;;;;;;;19.36;45.52;99815.50;7280153;19;151777;-50
2021/12/26 11:04:11;;;;;;;;;;;;;;;19.35;45.35;99817.47;7289425;19;152663;-49
2021/12/26 11:06:41;;;;;;;;;;;;;;;19.35;45.57;99819.47;7280395;19;152149;-50
2021/12/26 11:09:12;;;;;;;;;;;;;;;19.34;45.34;99821.44;7281717;19;152816;-50
2021/12/26 11:11:56;;;;;;;;;;;;;;;19.32;45.57;99817.31;7281093;19;154053;-50
2021/12/26 11:14:24;;;;;;;;;;;;;;;19.31;45.46;99815.66;7279711;19;151874;-50
2021/12/26 11:16:51;;;;;;;;;;;;;;;19.29;45.50;99817.97;7280768;19;153462;-48
2021/12/26 11:19:27;;;;;;;;;;;;;;;19.26;45.67;99813.03;7280242;19;153473;-49
2021/12/26 11:21:54;;;;;;;;;;;;;;;19.25;45.71;99808.59;7282482;19;152291;-50
2021/12/26 11:24:21;;;;;;;;;;;;;;;19.23;45.81;99806.09;7282011;19;153518;-49
2021/12/26 11:26:48;;;;;;;;;;;;;;;19.21;45.99;99808.41;7288366;19;153439;-49
2021/12/26 11:29:20;;;;;;;;;;;;;;;19.21;45.88;99804.78;7282160;19;152722;-50
2021/12/26 11:31:50;;;;;;;;;;;;;;;19.19;46.07;99810.72;7281071;19;153281;-50
2021/12/26 11:34:18;;;;;;;;;;;;;;;19.18;46.14;99814.66;7282438;19;152015;-49
2021/12/26 11:36:45;;;;;;;;;;;;;;;19.17;46.09;99809.41;7283302;19;154190;-50
2021/12/26 11:39:12;;;;;;;;;;;;;;;19.14;45.96;99804.44;7280172;19;154036;-50
2021/12/26 11:41:42;;;;;;;;;;;;;;;19.14;45.87;99807.22;7283663;19;152669;-50
2021/12/26 11:44:13;;;;;;;;;;;;;;;19.12;46.20;99807.56;7282072;19;152318;-50
2021/12/26 11:46:52;;;;;;;;;;;;;;;19.09;46.11;99808.22;7279692;19;152929;-49
2021/12/26 11:49:23;;;;;;;;;;;;;;;19.07;46.07;99802.13;7287720;19;152057;-50
2021/12/26 11:51:53;;;;;;;;;;;;;;;19.05;46.34;99798.81;7279071;19;154147;-49
2021/12/26 11:54:24;;;;;;;;;;;;;;;19.05;46.42;99802.44;7280875;19;152179;-50
2021/12/26 11:56:54;;;;;;;;;;;;;;;19.04;46.41;99794.38;7280265;19;153051;-49
2021/12/26 11:59:24;;;;;;;;;;;;;;;19.02;46.39;99797.50;7279339;19;153935;-49
2021/12/26 12:01:51;;;;;;;;;;;;;;;19.01;46.49;99793.06;7281158;19;151902;-49
2021/12/26 12:04:20;;;;;;;;;;;;;;;19.02;46.40;99796.69;7281917;19;152902;-50
2021/12/26 12:06:49;;;;;;;;;;;;;;;18.97;46.60;99797.66;7282149;19;152251;-50
2021/12/26 12:09:19;;;;;;;;;;;;;;;18.97;46.41;99794.03;7289138;19;152747;-49
2021/12/26 12:11:49;;;;;;;;;;;;;;;18.96;46.23;99793.22;7292723;19;151882;-49
2021/12/26 12:14:39;;;;;;;;;;;;;;;18.95;46.44;99793.53;7286811;19;152187;-50
2021/12/26 12:17:09;;;;;;;;;;;;;;;18.92;46.37;99794.19;7283731;19;154872;-49
2021/12/26 12:19:36;;;;;;;;;;;;;;;18.93;46.74;99793.03;7283689;19;153321;-49
2021/12/26 12:22:05;;;;;;;;;;;;;;;18.93;46.43;99796.66;7288013;19;152603;-48
2021/12/26 12:24:33;;;;;;;;;;;;;;;18.92;46.31;99789.41;7286817;19;152687;-49
2021/12/26 12:27:09;;;;;;;;;;;;;;;18.89;46.62;99790.06;7286168;19;153876;-49
2021/12/26 12:29:44;;;;;;;;;;;;;;;18.90;46.55;99788.91;7287078;19;152002;-50
2021/12/26 12:32:12;;;;;;;;;;;;;;;18.87;46.68;99789.56;7283535;19;153334;-49
2021/12/26 12:34:47;;;;;;;;;;;;;;;18.88;46.41;99777.22;7292802;19;153276;-49
2021/12/26 12:37:17;;;;;;;;;;;;;;;18.86;46.68;99776.72;7284622;19;152870;-49
2021/12/26 12:39:52;;;;;;;;;;;;;;;18.86;46.89;99779.50;7285625;19;154089;-49
2021/12/26 12:42:19;;;;;;;;;;;;;;;18.85;46.72;99774.25;7286485;19;152192;-50
2021/12/26 12:44:56;;;;;;;;;;;;;;;18.85;46.51;99775.06;7286329;19;153685;-50
2021/12/26 12:47:24;;;;;;;;;;;;;;;18.85;46.80;99777.84;7285481;19;153779;-49
2021/12/26 12:49:53;;;;;;;;;;;;;;;18.84;46.75;99775.41;7286285;19;151816;-50
2021/12/26 12:52:23;;;;;;;;;;;;;;;18.81;47.00;99768.47;7285259;19;153432;-49